createdAt,value
2023-01-23T00:02:07.098Z,3.70
2023-01-23T00:04:34.028Z,3.70
2023-01-23T00:07:01.036Z,3.70
2023-01-23T00:09:28.154Z,3.70
2023-01-23T00:11:55.016Z,3.70
2023-01-23T00:14:21.955Z,3.70
2023-01-23T00:16:48.838Z,3.60
2023-01-23T00:19:15.843Z,3.60
2023-01-23T00:21:42.675Z,3.60
2023-01-23T00:24:10.972Z,3.60
2023-01-23T00:26:37.849Z,3.60
2023-01-23T00:29:05.177Z,3.60
2023-01-23T00:31:33.750Z,3.60
2023-01-23T00:34:05.191Z,3.60
2023-01-23T00:36:33.998Z,3.60
2023-01-23T00:39:01.225Z,3.60
2023-01-23T00:41:28.242Z,3.60
2023-01-23T00:43:55.266Z,3.70
2023-01-23T00:46:22.706Z,3.70
2023-01-23T00:48:49.661Z,3.60
2023-01-23T00:51:16.791Z,3.60
2023-01-23T00:53:44.261Z,3.60
2023-01-23T00:56:11.130Z,3.60
2023-01-23T00:58:38.054Z,3.60
2023-01-23T01:01:05.113Z,3.60
2023-01-23T01:03:31.986Z,3.50
2023-01-23T01:05:58.991Z,3.50
2023-01-23T01:08:25.930Z,3.50
2023-01-23T01:10:54.841Z,3.50
2023-01-23T01:13:23.872Z,3.50
2023-01-23T01:15:51.903Z,3.50
2023-01-23T01:18:18.871Z,3.60
2023-01-23T01:20:46.151Z,3.60
2023-01-23T01:23:13.274Z,3.60
2023-01-23T01:25:40.641Z,3.70
2023-01-23T01:28:07.848Z,3.70
2023-01-23T01:30:34.932Z,3.80
2023-01-23T01:33:04.936Z,3.80
2023-01-23T01:35:32.105Z,3.80
2023-01-23T01:37:59.767Z,3.70
2023-01-23T01:40:27.992Z,3.70
2023-01-23T01:42:54.868Z,3.70
2023-01-23T01:45:40.555Z,3.70
2023-01-23T01:48:08.090Z,3.70
2023-01-23T01:50:35.645Z,3.60
2023-01-23T01:53:02.596Z,3.60
2023-01-23T01:55:29.909Z,3.60
2023-01-23T01:57:56.815Z,3.60
2023-01-23T02:00:23.745Z,3.60
2023-01-23T02:02:50.695Z,3.60
2023-01-23T02:05:22.457Z,3.60
2023-01-23T02:07:54.563Z,3.60
2023-01-23T02:10:22.353Z,3.60
2023-01-23T02:12:51.972Z,3.50
2023-01-23T02:15:20.394Z,3.50
2023-01-23T02:17:48.672Z,3.50
2023-01-23T02:20:21.985Z,3.40
2023-01-23T02:22:53.684Z,3.40
2023-01-23T02:25:28.755Z,3.40
2023-01-23T02:27:55.730Z,3.50
2023-01-23T02:30:22.911Z,3.50
2023-01-23T02:32:49.780Z,3.50
2023-01-23T02:35:24.518Z,3.50
2023-01-23T02:37:52.344Z,3.50
2023-01-23T02:40:21.884Z,3.50
2023-01-23T02:42:50.615Z,3.50
2023-01-23T02:45:17.624Z,3.50
2023-01-23T02:47:44.504Z,3.50
2023-01-23T02:50:11.551Z,3.50
2023-01-23T02:52:38.416Z,3.50
2023-01-23T02:55:05.514Z,3.50
2023-01-23T02:57:32.437Z,3.50
2023-01-23T03:00:17.550Z,3.50
2023-01-23T03:02:45.698Z,3.50
2023-01-23T03:05:12.547Z,3.50
2023-01-23T03:07:39.538Z,3.50
2023-01-23T03:10:09.789Z,3.50
2023-01-23T03:12:39.909Z,3.50
2023-01-23T03:15:07.254Z,3.60
2023-01-23T03:17:34.182Z,3.60
2023-01-23T03:20:01.743Z,3.60
2023-01-23T03:22:28.643Z,3.70
2023-01-23T03:24:57.903Z,3.70
2023-01-23T03:27:24.783Z,3.70
2023-01-23T03:30:10.093Z,3.80
2023-01-23T03:32:38.721Z,3.80
2023-01-23T03:35:06.609Z,3.80
2023-01-23T03:37:33.503Z,3.70
2023-01-23T03:40:19.139Z,3.70
2023-01-23T03:42:46.278Z,3.60
2023-01-23T03:45:13.148Z,3.60
2023-01-23T03:47:40.080Z,3.60
2023-01-23T03:50:07.892Z,3.60
2023-01-23T03:52:35.481Z,3.60
2023-01-23T03:55:02.353Z,3.60
2023-01-23T03:57:29.339Z,3.60
2023-01-23T03:59:56.218Z,3.60
2023-01-23T04:02:24.179Z,3.60
2023-01-23T04:04:51.103Z,3.60
2023-01-23T04:07:17.984Z,3.60
2023-01-23T04:09:44.888Z,3.60
2023-01-23T04:12:11.833Z,3.50
2023-01-23T04:14:38.778Z,3.60
2023-01-23T04:17:05.994Z,3.60
2023-01-23T04:19:33.041Z,3.60
2023-01-23T04:21:59.953Z,3.50
2023-01-23T04:24:27.076Z,3.40
2023-01-23T04:26:53.963Z,3.40
2023-01-23T04:29:20.934Z,3.30
2023-01-23T04:31:47.900Z,3.30
2023-01-23T04:34:14.873Z,3.30
2023-01-23T04:36:41.793Z,3.30
2023-01-23T04:39:08.756Z,3.30
2023-01-23T04:41:35.775Z,3.20
2023-01-23T04:44:20.858Z,3.20
2023-01-23T04:46:50.068Z,3.20
2023-01-23T04:49:17.378Z,3.20
2023-01-23T04:51:45.917Z,3.20
2023-01-23T04:54:12.798Z,3.30
2023-01-23T04:56:39.851Z,3.30
2023-01-23T04:59:06.813Z,3.30
2023-01-23T05:01:33.897Z,3.30
2023-01-23T05:04:00.851Z,3.30
2023-01-23T05:06:27.787Z,3.30
2023-01-23T05:08:54.738Z,3.30
2023-01-23T05:11:21.969Z,3.30
2023-01-23T05:13:48.883Z,3.30
2023-01-23T05:16:15.876Z,3.30
2023-01-23T05:18:42.745Z,3.30
2023-01-23T05:21:09.669Z,3.30
2023-01-23T05:23:37.299Z,3.30
2023-01-23T05:26:04.277Z,3.30
2023-01-23T05:28:31.078Z,3.30
2023-01-23T05:30:58.148Z,3.30
2023-01-23T05:33:25.377Z,3.30
2023-01-23T05:35:52.212Z,3.40
2023-01-23T05:38:19.152Z,3.40
2023-01-23T05:40:46.084Z,3.40
2023-01-23T05:43:16.334Z,3.40
2023-01-23T05:45:43.322Z,3.40
2023-01-23T05:48:10.142Z,3.50
2023-01-23T05:50:37.081Z,3.50
2023-01-23T05:53:04.538Z,3.50
2023-01-23T05:55:31.508Z,3.50
2023-01-23T05:57:58.499Z,3.50
2023-01-23T06:00:25.470Z,3.50
2023-01-23T06:02:52.419Z,3.50
2023-01-23T06:05:19.369Z,3.50
2023-01-23T06:07:46.269Z,3.50
2023-01-23T06:10:13.198Z,3.50
2023-01-23T06:12:40.136Z,3.50
2023-01-23T06:15:07.338Z,3.50
2023-01-23T06:17:34.356Z,3.60
2023-01-23T06:20:01.351Z,3.60
2023-01-23T06:22:30.062Z,3.60
2023-01-23T06:24:58.275Z,3.60
2023-01-23T06:27:25.188Z,3.60
2023-01-23T06:29:52.120Z,3.60
2023-01-23T06:32:18.987Z,3.60
2023-01-23T06:34:45.937Z,3.60
2023-01-23T06:37:12.823Z,3.60
2023-01-23T06:39:39.782Z,3.60
2023-01-23T06:42:10.145Z,3.60
2023-01-23T06:44:37.619Z,3.60
2023-01-23T06:47:04.732Z,3.60
2023-01-23T06:49:31.702Z,3.60
2023-01-23T06:51:58.559Z,3.60
2023-01-23T06:54:25.513Z,3.60
2023-01-23T06:56:52.429Z,3.60
2023-01-23T06:59:19.315Z,3.60
2023-01-23T07:01:46.179Z,3.60
2023-01-23T07:04:13.335Z,3.60
2023-01-23T07:06:40.197Z,3.60
2023-01-23T07:09:07.076Z,3.60
2023-01-23T07:11:34.058Z,3.60
2023-01-23T07:14:00.966Z,3.60
2023-01-23T07:16:28.162Z,3.70
2023-01-23T07:18:55.163Z,3.70
2023-01-23T07:21:22.105Z,3.70
2023-01-23T07:23:51.149Z,3.70
2023-01-23T07:26:18.116Z,3.70
2023-01-23T07:28:44.986Z,3.70
2023-01-23T07:31:11.958Z,3.70
2023-01-23T07:33:39.063Z,3.70
2023-01-23T07:36:07.255Z,3.70
2023-01-23T07:38:34.605Z,3.70
2023-01-23T07:41:01.476Z,3.70
2023-01-23T07:43:28.404Z,3.70
2023-01-23T07:45:55.328Z,3.70
2023-01-23T07:48:22.256Z,3.70
2023-01-23T07:50:49.254Z,3.70
2023-01-23T07:53:16.197Z,3.70
2023-01-23T07:55:43.162Z,3.80
2023-01-23T07:58:10.083Z,3.90
2023-01-23T08:00:37.002Z,3.90
2023-01-23T08:03:04.056Z,4.00
2023-01-23T08:05:31.070Z,4.00
2023-01-23T08:08:12.023Z,3.90
2023-01-23T08:10:40.177Z,3.90
2023-01-23T08:13:07.140Z,3.90
2023-01-23T08:15:34.022Z,3.90
2023-01-23T08:18:00.898Z,3.90
2023-01-23T08:20:27.869Z,3.80
2023-01-23T08:22:54.858Z,3.90
2023-01-23T08:25:21.716Z,3.90
2023-01-23T08:27:48.634Z,3.90
2023-01-23T08:30:15.912Z,3.90
2023-01-23T08:32:42.815Z,3.80
2023-01-23T08:35:10.341Z,3.80
2023-01-23T08:37:38.109Z,3.80
2023-01-23T08:40:05.377Z,3.90
2023-01-23T08:42:32.212Z,3.90
2023-01-23T08:44:59.112Z,3.90
2023-01-23T08:47:26.046Z,3.90
2023-01-23T08:49:52.917Z,3.90
2023-01-23T08:52:19.812Z,3.90
2023-01-23T08:54:46.688Z,3.90
2023-01-23T08:57:13.599Z,3.90
2023-01-23T08:59:40.417Z,4.00
2023-01-23T09:02:07.417Z,4.00
2023-01-23T09:04:34.419Z,4.00
2023-01-23T09:07:01.400Z,4.00
2023-01-23T09:09:29.557Z,4.00
2023-01-23T09:11:56.395Z,4.00
2023-01-23T09:14:23.310Z,4.00
2023-01-23T09:16:50.276Z,4.00
2023-01-23T09:19:17.344Z,4.00
2023-01-23T09:21:44.259Z,4.00
2023-01-23T09:24:11.131Z,4.00
2023-01-23T09:26:38.356Z,4.10
2023-01-23T09:29:05.302Z,4.10
2023-01-23T09:31:32.205Z,4.10
2023-01-23T09:33:59.155Z,4.10
2023-01-23T09:36:41.808Z,4.10
2023-01-23T09:39:09.629Z,4.10
2023-01-23T09:41:36.577Z,4.10
2023-01-23T09:44:11.330Z,4.00
2023-01-23T09:46:43.339Z,4.00
2023-01-23T09:49:13.278Z,4.00
2023-01-23T09:51:53.439Z,4.00
2023-01-23T09:54:39.223Z,4.00
2023-01-23T09:57:12.249Z,4.00
2023-01-23T09:59:53.836Z,4.00
2023-01-23T10:02:27.085Z,4.00
2023-01-23T10:04:55.219Z,3.90
2023-01-23T10:07:31.081Z,3.90
2023-01-23T10:10:00.337Z,3.90
2023-01-23T10:12:46.229Z,3.90
2023-01-23T10:15:19.746Z,3.80
2023-01-23T10:17:52.894Z,3.80
2023-01-23T10:20:20.042Z,3.80
2023-01-23T10:23:12.413Z,3.90
2023-01-23T10:25:41.128Z,3.90
2023-01-23T10:28:26.625Z,3.90
2023-01-23T10:30:57.628Z,4.00
2023-01-23T10:33:31.928Z,4.10
2023-01-23T10:36:02.323Z,4.10
2023-01-23T10:38:40.099Z,4.20
2023-01-23T10:41:14.649Z,4.20
2023-01-23T10:43:42.273Z,4.30
2023-01-23T10:46:14.021Z,4.30
2023-01-23T10:48:44.109Z,4.30
2023-01-23T10:51:29.868Z,4.30
2023-01-23T10:54:11.320Z,4.40
2023-01-23T10:56:45.803Z,4.40
2023-01-23T10:59:18.663Z,4.40
2023-01-23T11:01:57.639Z,4.40
2023-01-23T11:04:26.475Z,4.40
2023-01-23T11:07:04.449Z,4.40
2023-01-23T11:09:31.652Z,4.40
2023-01-23T11:12:02.260Z,4.40
2023-01-23T11:14:29.505Z,4.40
2023-01-23T11:17:01.591Z,4.40
2023-01-23T11:19:30.624Z,4.50
2023-01-23T11:22:04.845Z,4.50
2023-01-23T11:24:40.762Z,4.50
2023-01-23T11:27:14.688Z,4.40
2023-01-23T11:29:58.724Z,4.40
2023-01-23T11:32:26.077Z,4.40
2023-01-23T11:34:55.090Z,4.50
2023-01-23T11:37:27.888Z,4.50
2023-01-23T11:39:57.586Z,4.60
2023-01-23T11:42:28.420Z,4.60
2023-01-23T11:44:58.671Z,4.60
2023-01-23T11:47:32.008Z,4.60
2023-01-23T11:50:13.876Z,4.60
2023-01-23T11:52:52.860Z,4.50
2023-01-23T11:55:26.103Z,4.50
2023-01-23T11:58:14.698Z,4.50
2023-01-23T12:00:47.112Z,4.60
2023-01-23T12:03:34.282Z,4.50
2023-01-23T12:06:19.557Z,4.50
2023-01-23T12:08:55.127Z,4.50
2023-01-23T12:11:24.557Z,4.50
2023-01-23T12:13:54.575Z,4.40
2023-01-23T12:16:30.224Z,4.50
2023-01-23T12:19:13.980Z,4.40
2023-01-23T12:22:01.131Z,4.40
2023-01-23T12:24:46.751Z,4.40
2023-01-23T12:27:20.009Z,4.40
2023-01-23T12:30:05.797Z,4.40
2023-01-23T12:32:55.903Z,4.40
2023-01-23T12:35:35.908Z,4.30
2023-01-23T12:38:05.867Z,4.40
2023-01-23T12:40:35.716Z,4.30
2023-01-23T12:43:02.598Z,4.30
2023-01-23T12:45:30.875Z,4.20
2023-01-23T12:48:02.667Z,4.20
2023-01-23T12:50:42.547Z,4.20
2023-01-23T12:53:14.386Z,4.30
2023-01-23T12:55:53.442Z,4.20
2023-01-23T12:58:20.652Z,4.30
2023-01-23T13:01:05.816Z,4.30
2023-01-23T13:03:46.389Z,4.30
2023-01-23T13:06:13.608Z,4.30
2023-01-23T13:09:02.591Z,4.30
2023-01-23T13:11:43.169Z,4.30
2023-01-23T13:15:10.633Z,4.30
2023-01-23T13:17:37.823Z,4.30
2023-01-23T13:20:41.849Z,4.40
2023-01-23T13:23:27.262Z,4.40
2023-01-23T13:26:13.670Z,4.40
2023-01-23T13:28:44.945Z,4.40
2023-01-23T13:31:31.296Z,4.40
2023-01-23T13:34:10.274Z,4.40
2023-01-23T13:36:42.032Z,4.40
2023-01-23T13:39:17.885Z,4.40
2023-01-23T13:41:45.657Z,4.40
2023-01-23T13:44:27.229Z,4.40
2023-01-23T14:24:21.301Z,4.40
2023-01-23T14:26:49.848Z,4.40
2023-01-23T14:29:24.545Z,4.40
2023-01-23T14:31:51.917Z,4.40
2023-01-23T14:34:20.572Z,4.40
2023-01-23T14:36:49.003Z,4.40
2023-01-23T14:39:23.146Z,4.40
2023-01-23T14:41:50.713Z,4.40
2023-01-23T14:44:22.510Z,4.40
2023-01-23T14:46:56.746Z,4.40
2023-01-23T14:49:28.264Z,4.40
2023-01-23T14:52:02.438Z,4.40
2023-01-23T14:54:33.243Z,4.40
2023-01-23T14:57:05.693Z,4.40
2023-01-23T14:59:34.744Z,4.40
2023-01-23T15:02:20.999Z,4.40
2023-01-23T15:05:06.763Z,4.40
2023-01-23T15:07:34.514Z,4.40
2023-01-23T15:10:01.715Z,4.40
2023-01-23T15:12:28.706Z,4.40
2023-01-23T15:14:56.348Z,4.30
2023-01-23T15:17:23.332Z,4.30
2023-01-23T15:19:52.155Z,4.30
2023-01-23T15:22:20.619Z,4.30
2023-01-23T15:24:48.089Z,4.30
2023-01-23T15:27:31.423Z,4.30
2023-01-23T15:30:17.016Z,4.30
2023-01-23T15:32:44.077Z,4.30
2023-01-23T15:35:16.404Z,4.30
2023-01-23T15:37:47.195Z,4.30
2023-01-23T15:40:15.884Z,4.30
2023-01-23T15:42:42.754Z,4.30
2023-01-23T15:45:15.805Z,4.30
2023-01-23T15:47:42.827Z,4.40
2023-01-23T15:50:13.013Z,4.40
2023-01-23T15:52:47.517Z,4.40
2023-01-23T15:55:14.916Z,4.40
2023-01-23T15:57:43.370Z,4.40
2023-01-23T16:00:26.637Z,4.40
2023-01-23T16:02:57.401Z,4.40
2023-01-23T16:05:28.660Z,4.40
2023-01-23T16:07:56.905Z,4.40
2023-01-23T16:10:26.078Z,4.40
2023-01-23T16:12:54.287Z,4.40
2023-01-23T16:15:22.646Z,4.40
2023-01-23T16:17:50.197Z,4.40
2023-01-23T16:20:19.058Z,4.40
2023-01-23T16:22:49.182Z,4.40
2023-01-23T16:25:41.817Z,4.40
2023-01-23T16:28:17.026Z,4.40
2023-01-23T16:30:44.348Z,4.40
2023-01-23T16:33:11.748Z,4.40
2023-01-23T16:35:38.785Z,4.40
2023-01-23T16:38:06.121Z,4.40
2023-01-23T16:40:33.907Z,4.40
2023-01-23T16:43:03.083Z,4.40
2023-01-23T16:45:31.239Z,4.40
2023-01-23T16:47:58.815Z,4.40
2023-01-23T16:50:45.632Z,4.40
2023-01-23T16:53:21.993Z,4.40
2023-01-23T16:55:49.083Z,4.40
2023-01-23T16:58:20.449Z,4.40
2023-01-23T17:00:47.438Z,4.40
2023-01-23T17:03:21.525Z,4.40
2023-01-23T17:05:48.746Z,4.40
2023-01-23T17:08:19.013Z,4.40
2023-01-23T17:10:51.116Z,4.40
2023-01-23T17:13:19.772Z,4.40
2023-01-23T17:15:47.587Z,4.40
2023-01-23T17:18:21.607Z,4.40
2023-01-23T17:20:48.807Z,4.40
2023-01-23T17:23:15.672Z,4.40
2023-01-23T17:25:59.164Z,4.40
2023-01-23T17:28:27.428Z,4.40
2023-01-23T17:30:55.247Z,4.50
2023-01-23T17:33:26.668Z,4.50
2023-01-23T17:35:54.315Z,4.50
2023-01-23T17:38:23.047Z,4.50
2023-01-23T17:40:50.172Z,4.50
2023-01-23T17:43:17.923Z,4.50
2023-01-23T17:45:46.644Z,4.50
2023-01-23T17:48:14.905Z,4.50
2023-01-23T17:50:45.833Z,4.50
2023-01-23T17:53:13.994Z,4.50
2023-01-23T17:55:43.674Z,4.50
2023-01-23T17:58:10.821Z,4.40
2023-01-23T18:00:38.857Z,4.40
2023-01-23T18:03:06.814Z,4.40
2023-01-23T18:05:33.764Z,4.40
2023-01-23T18:08:00.608Z,4.40
2023-01-23T18:10:29.976Z,4.40
2023-01-23T18:13:06.048Z,4.40
2023-01-23T18:15:39.124Z,4.50
2023-01-23T18:18:16.154Z,4.50
2023-01-23T18:20:43.182Z,4.50
2023-01-23T18:23:13.236Z,4.50
2023-01-23T18:25:42.343Z,4.50
2023-01-23T18:28:10.897Z,4.50
2023-01-23T18:30:45.296Z,4.50
2023-01-23T18:33:29.781Z,4.60
2023-01-23T18:36:05.860Z,4.60
2023-01-23T18:38:51.542Z,4.60
2023-01-23T18:41:22.516Z,4.60
2023-01-23T18:44:29.668Z,4.60
2023-01-23T18:46:57.038Z,4.60
2023-01-23T18:49:32.335Z,4.60
2023-01-23T18:52:07.781Z,4.60
2023-01-23T18:55:13.379Z,4.50
2023-01-23T18:57:53.577Z,4.60
2023-01-23T19:00:29.165Z,4.50
2023-01-23T19:03:04.801Z,4.50
2023-01-23T19:05:32.949Z,4.50
2023-01-23T19:08:00.774Z,4.50
2023-01-23T19:10:30.697Z,4.50
2023-01-23T19:13:13.791Z,4.50
2023-01-23T19:15:40.715Z,4.50
2023-01-23T19:18:07.673Z,4.40
2023-01-23T19:20:50.828Z,4.40
2023-01-23T19:23:20.668Z,4.40
2023-01-23T19:25:48.279Z,4.40
2023-01-23T19:28:15.828Z,4.40
2023-01-23T19:30:43.285Z,4.40
2023-01-23T19:33:16.939Z,4.40
2023-01-23T19:35:44.596Z,4.40
2023-01-23T19:38:11.592Z,4.40
2023-01-23T19:40:38.704Z,4.40
2023-01-23T19:43:14.505Z,4.40
2023-01-23T19:45:42.055Z,4.40
2023-01-23T19:48:09.357Z,4.40
2023-01-23T19:50:37.025Z,4.40
2023-01-23T19:53:04.577Z,4.40
2023-01-23T19:55:32.846Z,4.40
2023-01-23T19:57:59.747Z,4.50
2023-01-23T20:00:28.290Z,4.40
2023-01-23T20:02:55.261Z,4.40
2023-01-23T20:05:23.122Z,4.50
2023-01-23T20:07:50.428Z,4.50
2023-01-23T20:10:17.522Z,4.50
2023-01-23T20:12:45.555Z,4.50
2023-01-23T20:15:13.725Z,4.50
2023-01-23T20:17:41.103Z,4.50
2023-01-23T20:20:09.706Z,4.50
2023-01-23T20:22:36.677Z,4.50
2023-01-23T20:25:03.776Z,4.50
2023-01-23T20:27:30.721Z,4.50
2023-01-23T20:29:57.773Z,4.50
2023-01-23T20:32:24.683Z,4.50
2023-01-23T20:34:54.222Z,4.50
2023-01-23T20:37:21.177Z,4.50
2023-01-23T20:39:47.991Z,4.50
2023-01-23T20:42:14.927Z,4.50
2023-01-23T20:44:42.100Z,4.60
2023-01-23T20:47:09.111Z,4.60
2023-01-23T20:49:36.109Z,4.60
2023-01-23T20:52:21.443Z,4.60
2023-01-23T20:54:48.395Z,4.70
2023-01-23T20:57:15.748Z,4.70
2023-01-23T20:59:42.720Z,4.70
2023-01-23T21:02:27.245Z,4.70
2023-01-23T21:04:54.261Z,4.60
2023-01-23T21:07:22.175Z,4.60
2023-01-23T21:09:49.159Z,4.60
2023-01-23T21:12:16.039Z,4.60
2023-01-23T21:14:42.908Z,4.60
2023-01-23T21:17:09.981Z,4.60
2023-01-23T21:19:37.998Z,4.60
2023-01-23T21:22:06.195Z,4.70
2023-01-23T21:24:36.662Z,4.70
2023-01-23T21:27:04.595Z,4.70
2023-01-23T21:29:32.510Z,4.70
2023-01-23T21:31:59.667Z,4.80
2023-01-23T21:34:26.610Z,4.70
2023-01-23T21:36:53.616Z,4.70
2023-01-23T21:39:20.605Z,4.70
2023-01-23T21:41:47.522Z,4.70
2023-01-23T21:44:14.844Z,4.80
2023-01-23T21:46:42.222Z,4.80
2023-01-23T21:49:09.314Z,4.80
2023-01-23T21:51:36.907Z,4.80
2023-01-23T21:54:03.854Z,4.80
2023-01-23T21:56:30.759Z,4.80
2023-01-23T21:58:57.756Z,4.80
2023-01-23T22:01:42.667Z,4.80
2023-01-23T22:04:11.149Z,4.80
2023-01-23T22:06:39.286Z,4.80
2023-01-23T22:09:06.997Z,4.80
2023-01-23T22:11:34.234Z,4.80
2023-01-23T22:14:01.354Z,4.80
2023-01-23T22:16:46.853Z,4.80
2023-01-23T22:19:15.729Z,4.90
2023-01-23T22:21:43.906Z,4.80
2023-01-23T22:24:10.888Z,4.80
2023-01-23T22:26:37.979Z,4.80
2023-01-23T22:29:04.885Z,4.80
2023-01-23T22:31:31.833Z,4.80
2023-01-23T22:33:58.711Z,4.80
2023-01-23T22:36:25.638Z,4.80
2023-01-23T22:38:53.372Z,4.90
2023-01-23T22:41:20.903Z,4.80
2023-01-23T22:43:51.936Z,4.80
2023-01-23T22:46:19.497Z,4.80
2023-01-23T22:48:46.390Z,4.90
2023-01-23T22:51:15.271Z,4.80
2023-01-23T22:53:42.140Z,4.80
2023-01-23T22:56:09.424Z,4.80
2023-01-23T22:58:36.350Z,4.80
2023-01-23T23:01:03.837Z,4.80
2023-01-23T23:03:34.371Z,4.80
2023-01-23T23:06:02.357Z,4.80
2023-01-23T23:08:29.565Z,4.80
2023-01-23T23:11:10.200Z,4.80
2023-01-23T23:13:37.977Z,4.80
2023-01-23T23:16:06.404Z,4.90
2023-01-23T23:18:33.387Z,4.90
2023-01-23T23:21:00.984Z,4.90
2023-01-23T23:23:27.935Z,4.90
2023-01-23T23:25:55.124Z,5.00
2023-01-23T23:28:22.509Z,5.00
2023-01-23T23:30:49.457Z,5.00
2023-01-23T23:33:16.394Z,5.00
2023-01-23T23:35:43.523Z,5.00
2023-01-23T23:38:10.956Z,5.00
2023-01-23T23:40:38.201Z,5.00
2023-01-23T23:43:05.215Z,5.00
2023-01-23T23:45:32.205Z,4.90
2023-01-23T23:47:59.244Z,4.90
2023-01-23T23:50:26.174Z,4.90
2023-01-23T23:52:53.069Z,4.80
2023-01-23T23:55:20.275Z,4.80
2023-01-23T23:57:47.440Z,4.80
